Time;durP1;ratioP1;P1;durP2;ratioP2;P2;SDS_P1;SDS_P2;PMS_P1;PMS_P2;Temp;Humidity;BMP_temperature;BMP_pressure;BME280_temperature;BME280_humidity;BME280_pressure;Samples;Min_cycle;Max_cycle;Signal;HPM_P1;HPM_P2
2020/12/18 00:01:50;;;;;;;17.90;8.38;;;12.40;63.20;;;;;;6254836;28;20120;-73
2020/12/18 00:04:51;;;;;;;28.60;9.50;;;12.40;63.20;;;;;;6245399;28;20044;-74
2020/12/18 00:07:51;;;;;;;21.02;8.27;;;12.30;63.20;;;;;;6257057;28;20057;-73
2020/12/18 00:10:52;;;;;;;20.92;7.85;;;12.30;63.20;;;;;;6249604;28;20037;-73
2020/12/18 00:13:54;;;;;;;19.48;7.70;;;12.40;63.40;;;;;;6268403;28;20116;-73
2020/12/18 00:16:55;;;;;;;19.63;8.35;;;12.40;63.40;;;;;;6263740;28;20187;-73
2020/12/18 00:19:56;;;;;;;20.00;8.52;;;12.40;63.20;;;;;;6239826;28;20373;-73
2020/12/18 00:22:56;;;;;;;18.25;8.77;;;12.50;63.20;;;;;;6235248;28;20041;-73
2020/12/18 00:25:57;;;;;;;20.90;8.70;;;12.50;63.20;;;;;;6240203;28;20045;-74
2020/12/18 00:28:58;;;;;;;21.33;8.82;;;12.50;63.20;;;;;;6235760;28;20048;-73
2020/12/18 00:32:03;;;;;;;24.40;9.20;;;12.50;63.10;;;;;;6239677;28;20485;-73
2020/12/18 00:35:05;;;;;;;24.00;8.38;;;12.50;63.00;;;;;;6252008;28;20029;-74
2020/12/18 00:38:06;;;;;;;16.63;7.32;;;12.50;63.00;;;;;;6259319;28;20033;-73
2020/12/18 00:41:07;;;;;;;17.17;7.57;;;12.50;64.00;;;;;;6257989;28;20021;-72
2020/12/18 00:44:08;;;;;;;22.63;8.43;;;12.30;63.10;;;;;;6259917;28;20143;-73
2020/12/18 00:47:09;;;;;;;19.70;8.63;;;12.40;63.20;;;;;;6253315;28;20052;-73
2020/12/18 00:50:10;;;;;;;28.63;8.88;;;12.40;63.80;;;;;;6265221;28;20424;-73
2020/12/18 00:53:11;;;;;;;18.73;7.60;;;12.40;63.30;;;;;;6246919;28;20034;-73
2020/12/18 00:56:14;;;;;;;18.08;8.02;;;12.30;63.30;;;;;;6245976;28;20362;-73
2020/12/18 00:59:18;;;;;;;23.65;8.07;;;12.40;63.40;;;;;;6245365;28;20489;-73
2020/12/18 01:02:19;;;;;;;22.58;8.35;;;12.40;63.40;;;;;;6262517;28;20041;-73
2020/12/18 01:05:20;;;;;;;18.73;7.05;;;12.50;63.30;;;;;;6261439;28;20080;-73
2020/12/18 01:08:23;;;;;;;14.95;7.18;;;12.50;63.20;;;;;;6228076;28;20037;-74
2020/12/18 01:11:24;;;;;;;20.50;7.38;;;12.60;63.10;;;;;;6248006;28;20037;-73
2020/12/18 01:14:26;;;;;;;19.02;8.05;;;12.60;63.00;;;;;;6261140;28;20048;-74
2020/12/18 01:17:31;;;;;;;22.45;8.90;;;12.70;63.00;;;;;;6249531;28;20045;-73
2020/12/18 01:20:32;;;;;;;19.08;7.32;;;12.70;62.90;;;;;;6260512;28;20025;-74
2020/12/18 01:23:33;;;;;;;17.60;7.07;;;12.70;62.90;;;;;;6235124;28;20037;-73
2020/12/18 01:26:38;;;;;;;19.63;8.52;;;12.70;62.80;;;;;;6261638;28;20025;-72
2020/12/18 01:29:39;;;;;;;18.90;7.35;;;12.80;62.70;;;;;;6275172;28;20640;-73
2020/12/18 01:32:43;;;;;;;25.88;7.05;;;12.80;62.70;;;;;;6256331;28;20076;-74
2020/12/18 01:35:44;;;;;;;17.35;8.18;;;12.80;62.60;;;;;;6239694;28;20040;-74
2020/12/18 01:38:46;;;;;;;16.83;7.85;;;12.80;62.70;;;;;;6244659;28;20057;-74
2020/12/18 01:41:47;;;;;;;20.85;7.57;;;12.80;62.70;;;;;;6260943;28;20045;-73
2020/12/18 01:44:48;;;;;;;22.60;9.07;;;12.80;62.70;;;;;;6247852;28;20052;-73
2020/12/18 01:47:54;;;;;;;19.48;8.00;;;12.80;62.80;;;;;;6259204;28;20048;-73
2020/12/18 01:50:56;;;;;;;18.20;7.80;;;12.80;62.90;;;;;;6261906;28;20039;-73
2020/12/18 01:54:01;;;;;;;22.27;7.63;;;12.80;63.00;;;;;;6259136;28;20039;-73
2020/12/18 01:57:10;;;;;;;15.60;7.60;;;12.80;63.00;;;;;;6260808;28;20102;-73
2020/12/18 02:00:27;;;;;;;18.63;7.80;;;12.80;62.80;;;;;;6264667;28;20064;-73
2020/12/18 02:03:28;;;;;;;18.17;7.75;;;12.80;62.70;;;;;;6264037;28;20029;-73
2020/12/18 02:06:49;;;;;;;14.60;6.47;;;12.80;62.70;;;;;;6247633;28;20434;-72
2020/12/18 02:09:55;;;;;;;17.42;8.13;;;12.70;62.70;;;;;;6259528;28;20122;-74
2020/12/18 02:13:00;;;;;;;17.23;7.18;;;12.70;62.80;;;;;;6264003;28;20439;-73
2020/12/18 02:16:02;;;;;;;18.42;8.23;;;12.70;62.90;;;;;;6262197;28;20040;-73
2020/12/18 02:19:11;;;;;;;;;;;12.70;62.80;;;;;;6264526;28;20420;-73
2020/12/18 02:22:22;;;;;;;18.98;7.88;;;12.80;63.00;;;;;;6259514;28;19948;-73
2020/12/18 02:25:37;;;;;;;18.20;7.97;;;12.80;62.80;;;;;;6259978;28;20025;-73
2020/12/18 02:28:40;;;;;;;17.95;7.63;;;12.70;62.80;;;;;;6275182;28;20034;-73
2020/12/18 02:31:41;;;;;;;16.90;7.40;;;12.80;63.00;;;;;;6243675;28;20033;-73
2020/12/18 02:34:57;;;;;;;20.77;7.82;;;12.70;63.00;;;;;;6256168;28;20510;-73
2020/12/18 02:38:04;;;;;;;23.23;8.85;;;12.70;63.00;;;;;;6255449;28;20051;-73
2020/12/18 02:41:09;;;;;;;18.67;7.75;;;12.70;62.90;;;;;;6244495;28;20044;-73
2020/12/18 02:44:36;;;;;;;18.80;8.25;;;12.70;62.90;;;;;;6242700;28;20037;-73
2020/12/18 02:47:57;;;;;;;21.83;8.52;;;12.70;63.00;;;;;;6263448;28;20029;-73
2020/12/18 02:51:09;;;;;;;19.40;8.30;;;12.70;63.20;;;;;;6224754;28;20037;-73
2020/12/18 02:54:14;;;;;;;19.13;8.25;;;12.70;63.20;;;;;;6229632;28;20049;-73
2020/12/18 02:57:34;;;;;;;16.25;8.45;;;12.60;63.40;;;;;;6248544;28;20052;-73
2020/12/18 03:00:58;;;;;;;20.58;9.55;;;12.50;63.70;;;;;;6248395;28;20361;-72
2020/12/18 03:04:00;;;;;;;25.33;8.55;;;12.40;63.70;;;;;;6244740;28;20052;-73
2020/12/18 03:07:13;;;;;;;19.13;8.27;;;12.40;63.80;;;;;;6242936;28;20120;-75
2020/12/18 03:10:15;;;;;;;18.60;8.05;;;12.40;63.80;;;;;;6262268;28;20107;-73
2020/12/18 03:13:17;;;;;;;24.02;9.05;;;12.30;63.80;;;;;;6242764;28;20043;-74
2020/12/18 03:25:14;;;;;;;20.60;8.55;;;12.30;64.20;;;;;;6253388;28;20465;-73
2020/12/18 03:28:35;;;;;;;18.50;7.40;;;12.30;64.20;;;;;;6260408;28;20039;-73
2020/12/18 03:31:37;;;;;;;24.98;8.70;;;12.30;64.10;;;;;;6241505;28;20047;-73
2020/12/18 03:39:00;;;;;;;22.38;7.97;;;12.20;64.00;;;;;;6246865;28;20033;-73
2020/12/18 03:42:05;;;;;;;21.40;8.27;;;12.20;64.20;;;;;;6258467;28;20059;-73
2020/12/18 03:45:06;;;;;;;16.02;7.60;;;12.20;64.40;;;;;;6258304;28;20046;-73
2020/12/18 03:48:27;;;;;;;16.13;6.97;;;12.10;64.60;;;;;;6252775;28;20377;-73
2020/12/18 03:51:36;;;;;;;26.10;8.50;;;12.10;64.90;;;;;;6255657;28;20394;-73
2020/12/18 03:54:37;;;;;;;23.05;7.97;;;12.00;65.10;;;;;;6263651;28;20029;-73
2020/12/18 03:58:03;;;;;;;18.70;8.45;;;12.00;65.20;;;;;;6265021;28;20033;-73
2020/12/18 04:01:19;;;;;;;18.27;8.00;;;12.00;65.20;;;;;;6262030;28;22931;-73
2020/12/18 04:04:22;;;;;;;16.48;7.70;;;12.10;65.20;;;;;;6252878;28;20033;-73
2020/12/18 04:07:24;;;;;;;23.10;8.13;;;12.10;65.10;;;;;;6263903;28;20120;-73
2020/12/18 04:10:25;;;;;;;19.35;7.28;;;12.20;64.90;;;;;;6264364;28;20029;-73
2020/12/18 04:13:49;;;;;;;20.95;7.47;;;12.20;65.60;;;;;;6260992;28;20041;-72
2020/12/18 04:16:52;;;;;;;22.33;8.23;;;12.20;64.80;;;;;;6267464;28;20427;-73
2020/12/18 04:19:55;;;;;;;22.55;7.43;;;12.20;64.80;;;;;;6265488;28;20034;-73
2020/12/18 04:22:56;;;;;;;13.50;7.07;;;12.20;64.90;;;;;;6253847;28;20038;-73
2020/12/18 04:26:20;;;;;;;17.38;6.95;;;12.20;65.80;;;;;;6261287;28;20033;-72
2020/12/18 04:29:22;;;;;;;17.75;6.80;;;12.20;65.00;;;;;;6266443;28;20124;-73
2020/12/18 04:32:23;;;;;;;24.05;7.50;;;12.20;65.10;;;;;;6228056;28;20138;-72
2020/12/18 04:35:24;;;;;;;19.08;7.60;;;12.20;65.10;;;;;;6242344;28;20124;-72
2020/12/18 04:38:42;;;;;;;20.70;7.32;;;12.20;65.20;;;;;;6256116;28;20036;-72
2020/12/18 04:41:52;;;;;;;17.73;7.60;;;12.20;65.20;;;;;;6265248;28;20124;-72
2020/12/18 04:44:53;;;;;;;14.93;6.65;;;12.20;65.30;;;;;;6245553;28;20531;-72
2020/12/18 04:47:58;;;;;;;16.27;7.25;;;12.20;65.20;;;;;;6249772;28;20040;-72
2020/12/18 04:51:03;;;;;;;19.85;7.88;;;12.30;65.10;;;;;;6247780;28;20091;-72
2020/12/18 04:54:10;;;;;;;17.90;8.02;;;12.30;65.00;;;;;;6246492;28;20469;-72
2020/12/18 04:57:23;;;;;;;17.27;7.72;;;12.30;65.10;;;;;;6264209;28;20036;-73
2020/12/18 05:00:24;;;;;;;19.42;7.75;;;12.30;65.20;;;;;;6261546;28;20095;-73
2020/12/18 05:04:07;;;;;;;20.35;8.38;;;12.20;65.20;;;;;;6218639;28;20042;-73
2020/12/18 05:07:13;;;;;;;14.68;6.90;;;12.20;65.30;;;;;;6201386;28;20033;-73
2020/12/18 05:10:21;;;;;;;23.35;7.70;;;12.20;65.20;;;;;;6199156;28;20033;-73
2020/12/18 05:13:47;;;;;;;18.38;7.57;;;12.20;65.20;;;;;;6202610;28;20463;-72
2020/12/18 05:16:49;;;;;;;17.88;6.20;;;12.20;65.40;;;;;;6204349;28;20034;-73
2020/12/18 05:19:58;;;;;;;19.48;7.45;;;12.10;65.60;;;;;;6192514;28;20470;-73
2020/12/18 05:23:18;;;;;;;15.43;6.93;;;12.10;65.80;;;;;;6216236;28;20062;-74
2020/12/18 05:26:38;;;;;;;19.85;8.00;;;12.10;66.00;;;;;;6219451;28;20041;-72
2020/12/18 05:29:42;;;;;;;17.38;8.05;;;12.00;66.20;;;;;;6203027;28;20383;-72
2020/12/18 05:33:18;;;;;;;15.57;7.32;;;12.00;66.40;;;;;;6150808;28;20043;-72
2020/12/18 05:36:51;;;;;;;16.05;7.47;;;12.00;66.40;;;;;;6189978;28;20069;-73
2020/12/18 05:40:08;;;;;;;18.30;7.70;;;12.00;66.40;;;;;;6172486;28;20034;-73
2020/12/18 05:43:41;;;;;;;18.10;7.90;;;12.00;66.40;;;;;;6175299;28;20451;-73
2020/12/18 05:47:03;;;;;;;16.70;7.47;;;12.00;66.40;;;;;;6186091;28;20137;-72
2020/12/18 05:50:09;;;;;;;21.67;7.97;;;12.10;66.30;;;;;;6164513;28;20062;-73
2020/12/18 05:53:12;;;;;;;20.20;8.15;;;12.20;66.20;;;;;;6188601;28;20057;-73
2020/12/18 05:56:32;;;;;;;19.95;7.15;;;12.10;65.90;;;;;;6173977;28;20046;-73
2020/12/18 05:59:44;;;;;;;16.30;7.80;;;12.10;66.00;;;;;;6188484;28;20038;-73
2020/12/18 06:02:58;;;;;;;22.77;8.38;;;12.20;66.10;;;;;;6188261;28;20114;-73
2020/12/18 06:06:18;;;;;;;17.10;7.35;;;12.10;66.00;;;;;;6183017;28;20136;-73
2020/12/18 06:09:27;;;;;;;17.88;7.50;;;12.10;66.00;;;;;;6210037;28;20042;-73
2020/12/18 06:12:29;;;;;;;13.40;7.60;;;12.10;66.10;;;;;;6248964;28;20120;-73
2020/12/18 06:15:33;;;;;;;16.85;7.60;;;12.00;66.10;;;;;;6254404;28;20041;-73
2020/12/18 06:18:44;;;;;;;15.80;7.45;;;12.00;66.10;;;;;;6261084;28;20033;-73
2020/12/18 06:21:53;;;;;;;26.35;8.25;;;12.00;66.10;;;;;;6236608;28;20034;-73
2020/12/18 06:25:05;;;;;;;18.77;7.93;;;12.00;66.10;;;;;;6231962;28;20029;-73
2020/12/18 06:28:44;;;;;;;18.88;8.45;;;12.00;66.10;;;;;;6223468;28;20091;-73
2020/12/18 06:31:47;;;;;;;16.13;7.70;;;12.00;66.00;;;;;;6218347;28;20037;-73
2020/12/18 06:35:37;;;;;;;15.80;7.38;;;12.00;66.00;;;;;;6226527;28;20041;-73
2020/12/18 06:38:59;;;;;;;18.10;7.18;;;12.00;66.10;;;;;;6226162;28;20038;-73
2020/12/18 06:42:32;;;;;;;18.17;7.57;;;12.00;66.20;;;;;;6212364;28;20038;-73
2020/12/18 06:46:06;;;;;;;14.75;7.53;;;12.00;66.20;;;;;;6192595;28;20380;-73
2020/12/18 06:49:54;;;;;;;19.42;8.27;;;12.00;66.20;;;;;;6225169;28;20030;-73
2020/12/18 06:53:16;;;;;;;24.20;7.90;;;12.00;66.30;;;;;;6237763;28;20029;-74
2020/12/18 06:56:27;;;;;;;18.85;7.28;;;12.00;66.20;;;;;;6202008;28;20467;-73
2020/12/18 07:00:22;;;;;;;17.77;8.07;;;12.10;66.20;;;;;;6219245;28;20029;-73
2020/12/18 07:03:36;;;;;;;17.83;7.68;;;12.10;66.00;;;;;;6250579;28;20033;-74
2020/12/18 07:06:36;;;;;;;16.25;7.75;;;12.00;65.80;;;;;;6260464;28;20029;-73
2020/12/18 07:09:41;;;;;;;17.63;7.70;;;12.00;65.90;;;;;;6256412;28;20046;-76
2020/12/18 07:12:48;;;;;;;15.90;6.95;;;12.00;66.10;;;;;;6245421;28;20116;-73
2020/12/18 07:15:53;;;;;;;15.50;7.68;;;12.00;66.10;;;;;;6252059;28;20114;-73
2020/12/18 07:18:58;;;;;;;19.42;8.15;;;12.00;66.10;;;;;;6257284;28;20030;-73
2020/12/18 07:22:00;;;;;;;18.90;7.25;;;12.00;66.10;;;;;;6260413;28;20048;-73
2020/12/18 07:25:01;;;;;;;19.35;7.65;;;12.00;66.10;;;;;;6252624;28;20034;-73
2020/12/18 07:28:02;;;;;;;16.98;7.15;;;12.00;66.10;;;;;;6241325;28;20109;-74
2020/12/18 07:31:06;;;;;;;14.40;6.97;;;12.00;66.90;;;;;;6258925;28;20477;-73
2020/12/18 07:34:11;;;;;;;14.45;7.30;;;12.10;66.00;;;;;;6249984;28;20575;-73
2020/12/18 07:37:12;;;;;;;12.35;6.57;;;12.20;65.90;;;;;;6261803;28;20092;-74
2020/12/18 07:40:13;;;;;;;22.85;8.05;;;12.20;65.70;;;;;;6241747;28;20064;-75
2020/12/18 07:43:16;;;;;;;18.02;7.13;;;12.20;65.40;;;;;;6258573;28;20345;-74
2020/12/18 07:46:19;;;;;;;23.15;8.45;;;12.30;65.20;;;;;;6257122;28;20041;-73
2020/12/18 07:49:24;;;;;;;19.55;8.00;;;12.30;64.90;;;;;;6255798;28;20034;-75
2020/12/18 07:52:26;;;;;;;12.38;6.72;;;12.40;65.00;;;;;;6255896;28;20040;-74
2020/12/18 07:55:27;;;;;;;18.42;8.65;;;12.40;64.70;;;;;;6252059;28;20033;-74
2020/12/18 07:58:30;;;;;;;17.55;8.15;;;12.30;64.60;;;;;;6227447;28;20112;-74
2020/12/18 08:01:32;;;;;;;20.02;7.80;;;12.30;64.80;;;;;;6251004;28;20104;-74
2020/12/18 08:04:34;;;;;;;19.20;8.93;;;12.30;65.00;;;;;;6254966;28;20095;-73
2020/12/18 08:07:35;;;;;;;19.05;8.23;;;12.20;65.00;;;;;;6241872;28;20336;-74
2020/12/18 08:10:40;;;;;;;25.95;8.88;;;12.20;65.10;;;;;;6243634;28;20060;-73
2020/12/18 08:13:41;;;;;;;19.77;8.52;;;12.20;65.20;;;;;;6254535;28;20040;-74
2020/12/18 08:16:43;;;;;;;16.10;7.70;;;12.20;65.20;;;;;;6244779;28;20340;-74
2020/12/18 08:19:53;;;;;;;17.45;8.38;;;12.20;65.40;;;;;;6243744;28;20450;-73
2020/12/18 08:22:54;;;;;;;20.20;7.80;;;12.20;65.50;;;;;;6258345;28;20091;-74
2020/12/18 08:25:56;;;;;;;23.17;8.43;;;12.20;65.60;;;;;;6239110;28;20447;-74
2020/12/18 08:28:58;;;;;;;16.67;7.30;;;12.30;65.50;;;;;;6232240;28;20164;-73
2020/12/18 08:32:02;;;;;;;29.48;8.45;;;12.30;65.40;;;;;;6231210;28;20069;-72
2020/12/18 08:35:07;;;;;;;23.27;8.80;;;12.30;65.50;;;;;;6250805;28;20029;-73
2020/12/18 08:38:09;;;;;;;17.80;8.00;;;12.30;65.40;;;;;;6252063;28;20033;-73
2020/12/18 08:41:12;;;;;;;20.13;9.20;;;12.30;65.40;;;;;;6248415;28;20037;-74
2020/12/18 08:44:21;;;;;;;19.83;7.78;;;12.40;65.40;;;;;;6242741;28;20372;-72
2020/12/18 08:47:27;;;;;;;21.40;9.45;;;12.40;65.30;;;;;;6257180;28;20045;-73
2020/12/18 08:50:28;;;;;;;24.23;8.90;;;12.50;65.30;;;;;;6251742;28;20063;-74
2020/12/18 08:53:34;;;;;;;17.48;8.35;;;12.50;65.10;;;;;;6258524;28;20025;-74
2020/12/18 08:56:35;;;;;;;26.27;10.00;;;12.50;65.10;;;;;;6256457;28;20076;-73
2020/12/18 08:59:36;;;;;;;26.48;9.30;;;12.50;64.90;;;;;;6256094;28;20041;-74
2020/12/18 09:02:45;;;;;;;23.30;9.38;;;12.60;64.90;;;;;;6256245;28;20052;-75
2020/12/18 09:05:47;;;;;;;23.77;9.57;;;12.60;64.90;;;;;;6239877;28;20343;-74
2020/12/18 09:08:48;;;;;;;19.33;9.77;;;12.60;64.60;;;;;;6247100;28;20072;-74
2020/12/18 09:11:49;;;;;;;18.92;10.27;;;12.60;64.50;;;;;;6243265;28;20120;-73
2020/12/18 09:14:50;;;;;;;20.05;8.90;;;12.70;64.50;;;;;;6262608;28;20056;-73
2020/12/18 09:18:04;;;;;;;27.50;10.32;;;12.70;64.40;;;;;;6247527;28;20042;-73
2020/12/18 09:21:13;;;;;;;25.67;9.85;;;12.80;64.00;;;;;;6253210;28;20029;-73
2020/12/18 09:24:22;;;;;;;27.52;10.93;;;12.80;63.70;;;;;;6257225;28;20041;-73
2020/12/18 09:27:25;;;;;;;;;;;12.80;63.40;;;;;;6258667;28;20039;-73
2020/12/18 09:30:28;;;;;;;17.98;7.80;;;13.00;63.50;;;;;;6243615;28;19975;-73
2020/12/18 09:33:32;;;;;;;24.35;9.02;;;13.00;63.20;;;;;;6257322;28;20033;-72
2020/12/18 09:36:33;;;;;;;21.80;8.68;;;13.10;63.00;;;;;;6259168;28;20025;-73
2020/12/18 09:39:33;;;;;;;19.10;8.00;;;13.20;63.00;;;;;;6221619;28;20037;-73
2020/12/18 09:42:34;;;;;;;26.35;10.85;;;13.30;62.80;;;;;;6237134;28;20084;-72
2020/12/18 09:45:35;;;;;;;22.92;9.15;;;13.40;62.30;;;;;;6261905;28;20045;-74
2020/12/18 09:48:38;;;;;;;21.58;9.38;;;13.50;62.10;;;;;;6259926;28;20052;-73
2020/12/18 09:51:39;;;;;;;21.33;9.38;;;13.50;61.80;;;;;;6236949;28;20048;-73
2020/12/18 09:54:40;;;;;;;20.23;8.18;;;13.50;61.40;;;;;;6259345;28;20036;-73
2020/12/18 09:57:41;;;;;;;17.83;8.15;;;13.60;60.90;;;;;;6243543;28;20045;-73
2020/12/18 10:00:42;;;;;;;22.77;9.10;;;13.50;60.70;;;;;;6248221;28;20060;-73
2020/12/18 10:03:43;;;;;;;24.95;7.60;;;13.50;60.60;;;;;;6259783;28;20355;-74
2020/12/18 10:06:44;;;;;;;19.48;7.78;;;13.40;60.80;;;;;;6234254;28;20068;-75
2020/12/18 10:09:44;;;;;;;25.35;8.98;;;13.40;61.10;;;;;;6251424;28;20064;-74
2020/12/18 10:12:46;;;;;;;22.77;8.55;;;13.50;61.40;;;;;;6245998;28;20099;-74
2020/12/18 10:15:47;;;;;;;24.15;8.55;;;13.60;61.40;;;;;;6239783;28;20419;-73
2020/12/18 10:18:48;;;;;;;18.27;8.13;;;13.70;61.20;;;;;;6258075;28;20053;-75
2020/12/18 10:21:49;;;;;;;18.10;8.13;;;13.80;60.90;;;;;;6229761;28;20096;-73
2020/12/18 10:24:51;;;;;;;15.40;7.63;;;13.80;60.70;;;;;;6262699;28;20033;-73
2020/12/18 10:27:52;;;;;;;37.13;15.40;;;13.80;60.10;;;;;;6265171;28;20047;-73
2020/12/18 10:30:56;;;;;;;39.20;14.88;;;13.90;59.90;;;;;;6257574;28;20037;-73
2020/12/18 10:33:57;;;;;;;33.92;12.82;;;13.90;59.90;;;;;;6258041;28;20037;-73
2020/12/18 10:36:58;;;;;;;28.77;12.05;;;14.00;60.00;;;;;;6261584;28;20040;-73
2020/12/18 10:39:59;;;;;;;66.75;23.60;;;14.10;59.60;;;;;;6256826;28;20033;-73
2020/12/18 10:43:00;;;;;;;24.27;11.15;;;14.30;59.40;;;;;;6253183;28;20447;-74
2020/12/18 10:46:01;;;;;;;24.65;10.07;;;14.40;59.00;;;;;;6254143;28;20102;-74
2020/12/18 10:49:02;;;;;;;20.38;8.70;;;14.50;58.80;;;;;;6219994;28;20081;-73
2020/12/18 10:52:03;;;;;;;26.00;8.60;;;14.60;58.50;;;;;;6231823;28;20067;-74
2020/12/18 10:55:04;;;;;;;21.90;10.30;;;14.60;58.00;;;;;;6231512;28;20049;-74
2020/12/18 10:58:05;;;;;;;38.53;15.63;;;14.70;57.80;;;;;;6230936;28;20117;-73
2020/12/18 11:01:06;;;;;;;47.42;17.33;;;14.80;57.70;;;;;;6237356;28;20038;-74
2020/12/18 11:04:07;;;;;;;40.35;15.73;;;14.90;57.40;;;;;;6227639;28;20040;-73
2020/12/18 11:07:09;;;;;;;27.90;12.45;;;15.00;57.30;;;;;;6230395;28;20117;-72
2020/12/18 11:10:10;;;;;;;39.13;15.45;;;15.00;57.00;;;;;;6228298;28;20052;-73
2020/12/18 11:13:11;;;;;;;36.72;16.48;;;15.00;56.80;;;;;;6235410;28;20218;-74
2020/12/18 11:16:12;;;;;;;45.20;17.35;;;15.00;56.90;;;;;;6213507;28;20425;-74
2020/12/18 11:19:13;;;;;;;54.10;19.85;;;15.10;56.90;;;;;;6230327;28;20041;-77
2020/12/18 11:22:15;;;;;;;20.70;9.85;;;15.20;56.80;;;;;;6223992;28;20048;-73
2020/12/18 11:25:16;;;;;;;30.38;12.13;;;15.10;56.30;;;;;;6248094;28;20121;-75
2020/12/18 11:28:17;;;;;;;42.03;16.92;;;15.10;56.10;;;;;;6254212;28;20029;-78
2020/12/18 11:31:19;;;;;;;16.23;8.13;;;15.10;56.20;;;;;;6254966;28;20485;-88
2020/12/18 11:34:20;;;;;;;37.22;14.73;;;15.10;56.20;;;;;;6247605;28;20095;-74
2020/12/18 11:37:21;;;;;;;24.70;9.85;;;15.10;56.30;;;;;;6249754;28;20041;-75
2020/12/18 11:40:22;;;;;;;21.55;9.20;;;15.10;56.40;;;;;;6244869;28;20037;-80
2020/12/18 11:43:23;;;;;;;14.65;7.13;;;15.20;56.30;;;;;;6248615;28;20037;-77
2020/12/18 11:46:24;;;;;;;14.55;7.53;;;15.30;56.10;;;;;;6254447;28;20064;-83
2020/12/18 11:49:28;;;;;;;16.55;8.45;;;15.30;55.90;;;;;;6252634;28;20048;-82
2020/12/18 11:52:28;;;;;;;17.77;7.68;;;15.40;55.80;;;;;;6253422;28;20052;-73
2020/12/18 11:55:29;;;;;;;21.45;8.75;;;15.50;55.90;;;;;;6258123;28;20458;-74
2020/12/18 11:58:30;;;;;;;24.50;11.23;;;15.60;55.90;;;;;;6230841;28;20117;-73
2020/12/18 12:01:31;;;;;;;18.67;8.32;;;15.70;55.60;;;;;;6217546;28;20041;-72
2020/12/18 12:04:32;;;;;;;20.98;7.40;;;15.80;55.50;;;;;;6246619;28;20093;-73
2020/12/18 12:07:33;;;;;;;13.52;6.22;;;15.90;55.10;;;;;;6259761;28;20033;-73
2020/12/18 12:10:34;;;;;;;16.65;8.02;;;16.00;54.60;;;;;;6249745;28;20132;-71
2020/12/18 12:13:35;;;;;;;19.15;7.38;;;16.00;54.40;;;;;;6262013;28;20435;-73
2020/12/18 12:16:37;;;;;;;23.80;7.78;;;16.00;54.70;;;;;;6229843;28;20029;-77
2020/12/18 12:19:47;;;;;;;43.30;18.38;;;16.00;54.30;;;;;;6264214;28;20055;-82
2020/12/18 12:22:48;;;;;;;19.48;8.93;;;16.00;54.20;;;;;;6259160;28;20060;-75
2020/12/18 12:25:50;;;;;;;29.13;10.55;;;16.00;54.10;;;;;;6260471;28;20846;-80
2020/12/18 12:28:52;;;;;;;21.05;7.75;;;16.00;54.20;;;;;;6260302;28;20033;-74
2020/12/18 12:31:53;;;;;;;19.40;7.40;;;16.30;54.10;;;;;;6265255;28;20049;-74
2020/12/18 12:34:54;;;;;;;15.43;7.38;;;16.10;54.00;;;;;;6265514;28;20430;-74
2020/12/18 12:37:55;;;;;;;19.92;7.22;;;16.10;54.10;;;;;;6262193;28;20091;-74
2020/12/18 12:40:56;;;;;;;18.17;7.10;;;16.10;54.10;;;;;;6261949;28;20036;-75
2020/12/18 12:43:58;;;;;;;26.55;10.65;;;16.20;54.30;;;;;;6250001;28;20400;-74
2020/12/18 12:46:59;;;;;;;17.13;6.97;;;16.30;54.30;;;;;;6262816;28;20045;-73
2020/12/18 12:50:00;;;;;;;16.55;7.28;;;16.40;54.20;;;;;;6257809;28;20044;-74
2020/12/18 12:53:01;;;;;;;23.33;7.72;;;16.40;54.10;;;;;;6256067;28;20037;-74
2020/12/18 12:56:03;;;;;;;17.98;7.07;;;16.50;54.00;;;;;;6263278;28;20032;-75
2020/12/18 12:59:03;;;;;;;20.77;9.65;;;16.50;54.10;;;;;;6251793;28;20128;-75
2020/12/18 13:02:07;;;;;;;37.60;16.85;;;16.60;54.10;;;;;;6248783;28;20036;-74
2020/12/18 13:05:08;;;;;;;28.23;10.90;;;16.60;53.90;;;;;;6255608;28;20419;-74
2020/12/18 13:08:09;;;;;;;21.30;9.70;;;16.70;53.90;;;;;;6261461;28;20034;-75
2020/12/18 13:11:10;;;;;;;36.80;14.38;;;16.80;54.00;;;;;;6242592;28;20026;-75
2020/12/18 13:14:11;;;;;;;22.58;7.95;;;16.90;53.90;;;;;;6261577;28;20052;-74
2020/12/18 13:17:12;;;;;;;18.63;8.85;;;16.90;53.70;;;;;;6244154;28;20044;-74
2020/12/18 13:20:13;;;;;;;22.23;6.88;;;17.00;53.60;;;;;;6249057;28;20439;-75
2020/12/18 13:23:14;;;;;;;15.30;6.80;;;17.00;53.50;;;;;;6235960;28;20039;-74
2020/12/18 13:26:14;;;;;;;19.85;6.90;;;17.10;53.50;;;;;;6248637;28;20128;-74
2020/12/18 13:29:15;;;;;;;19.90;8.45;;;17.10;53.50;;;;;;6254722;28;20478;-74
2020/12/18 13:32:16;;;;;;;21.23;9.07;;;17.10;53.40;;;;;;6262207;28;20470;-73
2020/12/18 13:35:17;;;;;;;21.65;6.63;;;17.20;53.20;;;;;;6250581;28;20099;-74
2020/12/18 13:38:18;;;;;;;20.15;9.85;;;17.20;53.00;;;;;;6252768;28;20112;-74
2020/12/18 13:41:19;;;;;;;46.63;19.70;;;17.10;52.90;;;;;;6242990;28;20040;-75
2020/12/18 13:44:20;;;;;;;45.42;15.95;;;17.10;52.90;;;;;;6264443;28;20059;-74
2020/12/18 13:47:45;;;;;;;41.33;12.13;;;17.20;52.80;;;;;;6260620;28;20128;-74
2020/12/18 13:50:46;;;;;;;15.15;6.47;;;17.20;52.70;;;;;;6257778;28;20043;-73
2020/12/18 13:53:47;;;;;;;38.88;13.05;;;17.20;52.30;;;;;;6259259;28;20026;-74
2020/12/18 13:56:48;;;;;;;24.23;9.70;;;17.30;52.00;;;;;;6218781;28;20144;-75
2020/12/18 13:59:49;;;;;;;39.40;13.43;;;17.20;51.30;;;;;;6233508;28;20041;-74
2020/12/18 14:02:50;;;;;;;32.47;12.40;;;17.20;51.20;;;;;;6241717;28;20085;-74
2020/12/18 14:05:51;;;;;;;22.85;7.75;;;17.20;51.40;;;;;;6254514;28;20040;-74
2020/12/18 14:08:52;;;;;;;11.38;4.57;;;17.20;51.20;;;;;;6258618;28;20457;-74
2020/12/18 14:11:53;;;;;;;16.73;5.63;;;17.30;51.00;;;;;;6239530;28;20061;-74
2020/12/18 14:14:54;;;;;;;9.43;4.45;;;17.30;50.70;;;;;;6255760;28;20342;-74
2020/12/18 14:17:55;;;;;;;13.05;5.95;;;17.20;50.30;;;;;;6256208;28;20116;-74
2020/12/18 14:20:57;;;;;;;21.40;8.98;;;17.20;50.40;;;;;;6259216;28;20666;-74
2020/12/18 14:23:58;;;;;;;17.70;6.95;;;17.20;50.50;;;;;;6228189;28;20038;-75
2020/12/18 14:27:00;;;;;;;28.48;10.23;;;17.20;50.60;;;;;;6233559;28;20045;-74
2020/12/18 14:30:00;;;;;;;10.38;5.63;;;17.20;50.70;;;;;;6256540;28;20037;-75
2020/12/18 14:33:01;;;;;;;10.32;4.20;;;17.20;50.80;;;;;;6247016;28;20041;-74
2020/12/18 14:36:03;;;;;;;11.48;4.70;;;17.20;50.70;;;;;;6230877;28;20735;-74
2020/12/18 14:39:04;;;;;;;11.07;4.82;;;17.20;50.70;;;;;;6231352;28;20033;-74
2020/12/18 14:42:06;;;;;;;10.02;3.42;;;17.20;50.90;;;;;;6234878;28;20509;-73
2020/12/18 14:45:08;;;;;;;11.45;4.38;;;17.10;50.80;;;;;;6221385;28;20045;-73
2020/12/18 14:48:08;;;;;;;11.13;5.45;;;17.10;50.70;;;;;;6230182;28;20030;-74
2020/12/18 14:51:10;;;;;;;25.17;9.88;;;17.00;50.60;;;;;;6214375;28;20045;-73
2020/12/18 14:54:10;;;;;;;24.75;11.07;;;16.90;50.80;;;;;;6261132;28;20025;-74
2020/12/18 14:57:12;;;;;;;8.10;4.20;;;16.80;50.70;;;;;;6260999;28;20034;-73
2020/12/18 15:00:13;;;;;;;10.27;4.60;;;16.70;51.00;;;;;;6258675;28;20036;-75
2020/12/18 15:03:16;;;;;;;19.48;4.75;;;16.60;51.10;;;;;;6241590;28;20382;-75
2020/12/18 15:06:16;;;;;;;12.00;4.60;;;16.50;51.30;;;;;;6235239;28;20068;-74
2020/12/18 15:09:18;;;;;;;9.27;4.07;;;16.40;51.50;;;;;;6258095;28;20029;-74
2020/12/18 15:12:20;;;;;;;9.60;4.13;;;16.30;51.70;;;;;;6260507;28;20036;-75
2020/12/18 15:15:21;;;;;;;13.57;4.05;;;16.30;51.90;;;;;;6252243;28;20116;-75
2020/12/18 15:18:21;;;;;;;14.75;6.63;;;16.30;52.20;;;;;;6254745;28;20029;-73
2020/12/18 15:21:22;;;;;;;14.30;4.75;;;16.20;52.30;;;;;;6255513;28;20111;-74
2020/12/18 15:24:23;;;;;;;16.92;4.78;;;16.20;52.30;;;;;;6241582;28;20033;-74
2020/12/18 15:27:24;;;;;;;13.35;4.25;;;16.10;52.40;;;;;;6257389;28;20037;-74
2020/12/18 15:30:25;;;;;;;13.82;5.60;;;16.10;52.50;;;;;;6219880;28;20041;-74
2020/12/18 15:33:26;;;;;;;10.15;4.63;;;16.00;52.60;;;;;;6231214;28;20045;-74
2020/12/18 15:36:29;;;;;;;16.13;5.35;;;16.00;52.80;;;;;;6197159;28;20045;-74
2020/12/18 15:39:32;;;;;;;13.43;4.93;;;16.10;52.90;;;;;;6223169;28;20137;-74
2020/12/18 15:42:34;;;;;;;15.93;5.10;;;16.00;53.10;;;;;;6233721;28;20041;-75
2020/12/18 15:45:35;;;;;;;9.10;4.68;;;15.80;53.20;;;;;;6234023;28;20129;-74
2020/12/18 15:48:36;;;;;;;16.20;5.65;;;15.80;53.50;;;;;;6231211;28;20103;-74
2020/12/18 15:51:36;;;;;;;13.20;4.55;;;15.70;53.60;;;;;;6232909;28;20370;-74
2020/12/18 15:54:43;;;;;;;11.45;5.00;;;15.60;53.90;;;;;;6224619;28;20420;-73
2020/12/18 15:57:45;;;;;;;9.93;4.25;;;15.50;54.20;;;;;;6221458;28;20033;-75
2020/12/18 16:00:45;;;;;;;13.32;5.22;;;15.40;54.50;;;;;;6247922;28;20451;-73
2020/12/18 16:03:47;;;;;;;12.80;5.10;;;15.30;54.70;;;;;;6256247;28;20048;-74